Time;durP1;ratioP1;P1;durP2;ratioP2;P2;SDS_P1;SDS_P2;PMS_P1;PMS_P2;Temp;Humidity;BMP_temperature;BMP_pressure;BME280_temperature;BME280_humidity;BME280_pressure;Samples;Min_cycle;Max_cycle;Signal;HPM_P1;HPM_P2
2021/06/23 00:00:33;;;;;;;;;36.50;32.25;;;;;17.24;65.16;101452.66;4957984;28;45560;-69
2021/06/23 00:02:59;;;;;;;;;43.00;36.75;;;;;17.22;64.62;101451.81;4958147;28;45361;-69
2021/06/23 00:05:24;;;;;;;;;42.00;36.50;;;;;17.18;65.01;101440.31;4958008;28;45333;-69
2021/06/23 00:07:50;;;;;;;;;40.50;33.75;;;;;17.23;65.08;101449.06;4942032;28;45366;-69
2021/06/23 00:10:15;;;;;;;;;34.25;31.25;;;;;17.34;65.15;101455.75;4957744;28;45484;-69
2021/06/23 00:12:42;;;;;;;;;38.25;32.00;;;;;17.27;64.96;101438.13;4948044;28;46332;-69
2021/06/23 00:15:08;;;;;;;;;41.00;33.75;;;;;17.35;64.65;101447.56;4947666;28;45464;-69
2021/06/23 00:17:33;;;;;;;;;38.75;34.50;;;;;17.37;64.73;101448.41;4957843;28;46732;-69
2021/06/23 00:19:59;;;;;;;;;39.50;34.50;;;;;17.35;64.74;101442.19;4930543;28;46106;-69
2021/06/23 00:22:24;;;;;;;;;37.75;34.25;;;;;17.38;64.46;101444.72;4941819;28;58935;-69
2021/06/23 00:24:50;;;;;;;;;38.50;33.25;;;;;17.37;64.71;101443.00;4957684;28;45412;-69
2021/06/23 00:27:15;;;;;;;;;38.00;32.50;;;;;17.34;64.89;101444.94;4942188;28;60230;-69
2021/06/23 00:29:40;;;;;;;;;38.75;33.25;;;;;17.38;65.34;101450.13;4942507;28;56455;-69
2021/06/23 00:32:10;;;;;;;;;38.75;33.00;;;;;17.34;64.67;101431.47;4941502;28;64651;-69
2021/06/23 00:34:35;;;;;;;;;34.75;31.75;;;;;17.29;64.95;101429.00;4941573;28;45443;-69
2021/06/23 00:37:00;;;;;;;;;38.00;33.25;;;;;17.30;65.05;101440.69;4956608;28;61020;-69
2021/06/23 00:39:26;;;;;;;;;35.00;32.00;;;;;17.31;64.87;101458.63;4957111;28;54253;-69
2021/06/23 00:41:51;;;;;;;;;34.25;32.50;;;;;17.21;65.05;101436.63;4941470;28;68440;-69
2021/06/23 00:44:17;;;;;;;;;33.50;31.75;;;;;17.26;64.73;101442.66;4941326;28;45310;-69
2021/06/23 00:46:42;;;;;;;;;35.75;32.75;;;;;17.28;65.05;101458.78;4957021;28;61687;-69
2021/06/23 00:49:08;;;;;;;;;35.00;30.00;;;;;17.27;64.25;101455.19;4957223;28;45251;-69
2021/06/23 00:51:33;;;;;;;;;36.50;32.00;;;;;17.21;65.01;101453.66;4956727;28;66675;-69
2021/06/23 00:53:58;;;;;;;;;31.00;30.00;;;;;17.08;65.12;101435.47;4956891;28;45242;-69
2021/06/23 00:56:31;;;;;;;;;36.50;30.75;;;;;17.27;64.52;101457.88;4942698;28;45752;-69
2021/06/23 00:58:57;;;;;;;;;36.25;31.75;;;;;17.25;64.83;101456.22;4957147;28;45380;-69
2021/06/23 01:01:22;;;;;;;;;36.25;32.75;;;;;17.27;64.63;101455.19;4956723;28;59601;-69
2021/06/23 01:03:48;;;;;;;;;29.25;29.25;;;;;17.30;64.81;101454.16;4939316;28;45288;-69
2021/06/23 01:06:13;;;;;;;;;33.75;31.50;;;;;17.30;64.56;101456.88;4925187;28;45947;-69
2021/06/23 01:08:38;;;;;;;;;33.50;31.00;;;;;17.29;65.08;101447.91;4956584;28;45664;-69
2021/06/23 01:11:05;;;;;;;;;36.25;31.75;;;;;17.30;64.90;101457.72;4940221;28;69562;-69
2021/06/23 01:13:37;;;;;;;;;32.50;29.50;;;;;17.32;64.60;101460.34;4952346;28;45834;-69
2021/06/23 01:16:06;;;;;;;;;34.50;31.75;;;;;17.27;64.29;101465.97;4942410;28;45371;-69
2021/06/23 01:18:36;;;;;;;;;36.75;31.50;;;;;17.26;64.86;101461.53;4939643;28;45437;-69
2021/06/23 01:21:02;;;;;;;;;34.25;30.75;;;;;17.25;64.39;101461.63;4945555;28;45360;-69
2021/06/23 01:23:27;;;;;;;;;37.00;32.75;;;;;17.22;64.28;101454.53;4956781;28;45562;-69
2021/06/23 01:25:53;;;;;;;;;38.75;34.00;;;;;17.19;64.36;101454.66;4956577;28;52727;-69
2021/06/23 01:28:18;;;;;;;;;36.75;33.00;;;;;17.21;64.59;101453.66;4941875;28;45235;-69
2021/06/23 01:30:44;;;;;;;;;34.75;30.75;;;;;17.17;64.95;101445.78;4956597;28;52727;-69
2021/06/23 01:33:09;;;;;;;;;32.25;31.25;;;;;17.19;64.52;101457.38;4956536;28;46852;-69
2021/06/23 01:35:35;;;;;;;;;40.50;34.25;;;;;17.22;64.64;101460.81;4957013;28;45267;-69
2021/06/23 01:38:00;;;;;;;;;41.25;34.00;;;;;17.19;64.57;101447.47;4956081;28;47699;-69
2021/06/23 01:40:26;;;;;;;;;35.25;31.25;;;;;17.20;64.84;101456.44;4924251;28;47138;-69
2021/06/23 01:42:51;;;;;;;;;35.00;31.50;;;;;17.15;64.89;101453.94;4940055;28;45167;-69
2021/06/23 01:45:16;;;;;;;;;34.75;32.00;;;;;17.12;65.01;101464.03;4956492;28;45740;-69
2021/06/23 01:47:42;;;;;;;;;38.00;33.00;;;;;17.08;64.56;101451.66;4939889;28;57468;-69
2021/06/23 01:50:09;;;;;;;;;41.25;34.75;;;;;17.13;64.67;101463.94;4955692;28;67547;-69
2021/06/23 01:52:37;;;;;;;;;37.50;33.75;;;;;17.15;64.93;101466.56;4956176;28;45807;-69
2021/06/23 01:55:02;;;;;;;;;37.00;33.00;;;;;17.13;65.05;101455.84;4956622;28;45410;-69
2021/06/23 01:57:28;;;;;;;;;45.50;35.50;;;;;17.15;65.02;101462.03;4941592;28;45407;-69
2021/06/23 01:59:53;;;;;;;;;41.00;35.00;;;;;17.19;64.60;101460.06;4955543;28;66351;-69
2021/06/23 02:02:28;;;;;;;;;39.25;33.50;;;;;17.17;64.66;101464.66;4941147;28;56126;-69
2021/06/23 02:05:05;;;;;;;;;38.00;32.75;;;;;17.17;64.68;101459.28;4941590;28;45147;-69
2021/06/23 02:07:33;;;;;;;;;36.50;32.75;;;;;17.20;64.57;101461.84;4940093;28;45195;-69
2021/06/23 02:10:05;;;;;;;;;43.00;35.25;;;;;17.15;65.11;101456.66;4955962;28;47628;-69
2021/06/23 02:12:30;;;;;;;;;39.75;34.50;;;;;17.19;64.83;101450.19;4943429;28;45231;-69
2021/06/23 02:14:59;;;;;;;;;38.67;34.33;;;;;17.22;64.96;101449.13;4948867;28;45219;-69
2021/06/23 02:17:26;;;;;;;;;38.25;32.50;;;;;17.17;64.78;101453.88;4941164;28;45468;-69
2021/06/23 02:19:52;;;;;;;;;38.00;33.75;;;;;17.12;64.55;101448.69;4944727;28;45540;-69
2021/06/23 02:22:18;;;;;;;;;38.25;34.25;;;;;17.08;65.00;101447.13;4938395;28;45404;-69
2021/06/23 02:24:44;;;;;;;;;36.50;33.50;;;;;17.12;64.98;101450.53;4956325;28;45254;-69
2021/06/23 02:27:11;;;;;;;;;37.50;33.00;;;;;17.08;64.79;101447.13;4939818;28;45328;-69
2021/06/23 02:29:36;;;;;;;;;39.25;33.00;;;;;17.05;65.17;101436.47;4956077;28;46323;-69
2021/06/23 02:32:03;;;;;;;;;37.25;32.25;;;;;17.08;65.10;101447.13;4939665;28;45334;-69
2021/06/23 02:34:28;;;;;;;;;32.00;31.00;;;;;17.05;64.89;101449.97;4956206;28;45429;-69
2021/06/23 02:36:53;;;;;;;;;34.75;31.00;;;;;17.01;65.19;101448.38;4955630;28;45522;-69
2021/06/23 02:39:19;;;;;;;;;34.00;32.25;;;;;17.02;65.39;101458.19;4955792;28;46037;-69
2021/06/23 02:41:44;;;;;;;;;33.25;30.50;;;;;17.01;65.28;101453.75;4955232;28;56106;-69
2021/06/23 02:44:10;;;;;;;;;41.00;33.75;;;;;17.10;65.31;101457.84;4955745;28;50631;-69
2021/06/23 02:46:35;;;;;;;;;41.50;35.00;;;;;17.14;65.17;101459.41;4940535;28;55971;-69
2021/06/23 02:49:00;;;;;;;;;39.50;33.00;;;;;17.10;64.80;101449.75;4954937;28;63104;-69
2021/06/23 02:51:26;;;;;;;;;36.25;33.25;;;;;17.17;64.92;101461.97;4955584;28;45978;-69
2021/06/23 02:53:53;;;;;;;;;34.50;30.25;;;;;17.16;64.92;101455.72;4955530;28;45361;-69
2021/06/23 02:56:19;;;;;;;;;38.00;33.00;;;;;17.06;64.65;101448.13;4958827;28;45517;-69
2021/06/23 02:58:44;;;;;;;;;33.25;31.75;;;;;17.13;64.66;101463.09;4939716;28;46260;-69
2021/06/23 03:01:13;;;;;;;;;34.50;30.50;;;;;17.13;65.05;101471.19;4944005;28;45272;-69
2021/06/23 03:03:39;;;;;;;;;27.50;26.25;;;;;17.10;64.95;101457.84;4944189;28;45480;-69
2021/06/23 03:06:05;;;;;;;;;31.75;30.50;;;;;17.12;65.04;101462.19;4958880;28;45516;-69
2021/06/23 03:08:31;;;;;;;;;32.50;29.50;;;;;17.12;64.79;101455.94;4958582;28;47071;-69
2021/06/23 03:10:56;;;;;;;;;30.75;29.25;;;;;17.13;65.23;101455.00;4958912;28;45340;-69
2021/06/23 03:13:21;;;;;;;;;28.75;28.00;;;;;17.13;65.24;101466.66;4952940;28;61404;-69
2021/06/23 03:15:47;;;;;;;;;27.25;25.50;;;;;17.12;64.92;101466.72;4958412;28;58954;-69
2021/06/23 03:18:12;;;;;;;;;31.50;30.00;;;;;17.13;64.78;101455.00;4957963;28;60083;-69
2021/06/23 03:20:37;;;;;;;;;29.50;28.00;;;;;17.10;64.70;101460.53;4944944;28;64958;-69
2021/06/23 03:23:03;;;;;;;;;30.00;29.00;;;;;17.08;64.92;101451.66;4943547;28;45204;-69
2021/06/23 03:25:28;;;;;;;;;26.75;23.25;;;;;17.04;64.72;101441.00;4943582;28;45259;-69
2021/06/23 03:27:54;;;;;;;;;29.00;24.00;;;;;17.11;65.22;101452.38;4958611;28;45369;-69
2021/06/23 03:30:21;;;;;;;;;24.25;24.25;;;;;17.10;64.81;101453.31;4958594;28;46097;-69
2021/06/23 03:32:48;;;;;;;;;24.50;24.00;;;;;17.15;64.90;101450.38;4958674;28;45258;-69
2021/06/23 03:35:14;;;;;;;;;21.75;19.25;;;;;17.11;64.91;101443.41;4958219;28;45407;-69
2021/06/23 03:37:39;;;;;;;;;25.00;22.25;;;;;17.19;64.76;101452.88;4943312;28;46226;-69
2021/06/23 03:40:05;;;;;;;;;21.75;21.50;;;;;17.20;65.15;101451.91;4942262;28;67099;-69
2021/06/23 03:42:31;;;;;;;;;25.50;25.50;;;;;17.22;64.62;101457.22;4958640;28;45361;-69
2021/06/23 03:44:56;;;;;;;;;25.25;23.75;;;;;17.18;64.52;101453.81;4942779;28;60787;-69
2021/06/23 03:47:22;;;;;;;;;23.00;23.00;;;;;17.13;64.70;101461.25;4943312;28;45390;-69
2021/06/23 03:49:47;;;;;;;;;23.25;22.00;;;;;17.09;64.96;101461.47;4942969;28;52377;-69
2021/06/23 03:52:12;;;;;;;;;24.67;23.00;;;;;16.96;64.90;101443.19;4943200;28;45667;-69
2021/06/23 03:54:38;;;;;;;;;23.75;20.75;;;;;17.01;64.75;101457.31;4943222;28;45632;-69
2021/06/23 03:57:03;;;;;;;;;22.25;22.25;;;;;17.00;64.75;101458.25;4957659;28;61381;-69
2021/06/23 03:59:29;;;;;;;;;21.50;21.50;;;;;16.92;65.19;101452.34;4943079;28;45313;-69
2021/06/23 04:01:54;;;;;;;;;25.00;22.25;;;;;16.90;64.86;101443.47;4942811;28;56095;-69
2021/06/23 04:04:20;;;;;;;;;22.25;21.25;;;;;16.97;65.03;101457.53;4942313;28;65881;-69
2021/06/23 04:06:45;;;;;;;;;23.25;21.75;;;;;16.89;64.82;101447.13;4957375;28;47137;-69
2021/06/23 04:09:10;;;;;;;;;24.25;24.25;;;;;16.98;65.25;101470.09;4957046;28;61900;-69
2021/06/23 04:11:36;;;;;;;;;24.75;24.25;;;;;16.98;65.12;101476.34;4942531;28;62300;-69
2021/06/23 04:14:02;;;;;;;;;25.25;23.00;;;;;16.96;65.40;101478.25;4967754;28;54433;-69
2021/06/23 04:16:28;;;;;;;;;26.00;24.75;;;;;16.96;65.09;101475.56;4943122;28;46221;-69
2021/06/23 04:18:53;;;;;;;;;25.75;24.00;;;;;16.94;65.47;101480.16;4954033;28;45423;-69
2021/06/23 04:21:19;;;;;;;;;26.00;25.00;;;;;16.90;65.06;101483.94;4934088;28;45316;-69
2021/06/23 04:23:44;;;;;;;;;23.50;23.00;;;;;16.87;65.35;101475.97;4924602;28;61834;-69
2021/06/23 04:26:09;;;;;;;;;26.00;25.75;;;;;16.78;65.37;101471.00;4942671;28;53745;-69
2021/06/23 04:28:35;;;;;;;;;27.00;24.25;;;;;16.79;65.52;101475.41;4942644;28;45398;-69
2021/06/23 04:31:00;;;;;;;;;28.50;28.50;;;;;16.83;65.47;101486.00;4957394;28;59492;-69
2021/06/23 04:33:25;;;;;;;;;26.00;23.75;;;;;16.62;65.28;101466.31;4942563;28;45376;-69
2021/06/23 04:35:51;;;;;;;;;24.25;23.25;;;;;16.74;65.61;101489.16;4957128;28;61526;-69
2021/06/23 04:38:17;;;;;;;;;28.25;25.50;;;;;16.76;65.80;101497.16;4957090;28;45366;-69
2021/06/23 04:40:43;;;;;;;;;27.75;24.75;;;;;16.74;65.89;101488.25;4957582;28;45374;-69
2021/06/23 04:43:08;;;;;;;;;28.00;26.00;;;;;16.82;65.70;101496.84;4957290;28;45956;-69
2021/06/23 04:45:34;;;;;;;;;25.50;24.25;;;;;16.80;65.48;101488.84;4942647;28;46054;-70
2021/06/23 04:47:59;;;;;;;;;25.50;25.50;;;;;16.80;65.92;101496.91;4940117;28;68811;-69
2021/06/23 04:50:24;;;;;;;;;30.00;25.50;;;;;16.85;65.60;101483.28;4957757;28;45381;-69
2021/06/23 04:52:50;;;;;;;;;27.75;24.50;;;;;16.72;65.71;101455.97;4956341;28;59841;-69
2021/06/23 04:55:16;;;;;;;;;23.50;22.25;;;;;16.89;65.31;101494.78;4937131;28;70433;-69
2021/06/23 04:57:42;;;;;;;;;25.25;24.00;;;;;16.80;65.74;101499.63;4935456;28;45391;-69
2021/06/23 05:00:08;;;;;;;;;26.25;21.00;;;;;16.80;65.69;101505.00;4941371;28;45523;-69
2021/06/23 05:02:33;;;;;;;;;24.00;22.00;;;;;16.76;65.91;101489.94;4940867;28;45801;-69
2021/06/23 05:05:00;;;;;;;;;23.25;21.25;;;;;16.80;65.76;101501.44;4957404;28;45498;-69
2021/06/23 05:07:25;;;;;;;;;24.25;23.25;;;;;16.79;65.87;101489.81;4956842;28;46054;-69
2021/06/23 05:09:51;;;;;;;;;26.75;24.00;;;;;16.87;66.06;101504.78;4956100;28;68277;-69
2021/06/23 05:12:17;;;;;;;;;25.00;22.00;;;;;16.86;65.44;101503.91;4958485;28;45518;-69
2021/06/23 05:14:43;;;;;;;;;26.00;23.50;;;;;16.89;65.83;101502.88;4949216;28;45516;-69
2021/06/23 05:17:08;;;;;;;;;23.50;22.75;;;;;16.85;65.62;101496.75;4956618;28;45226;-69
2021/06/23 05:19:35;;;;;;;;;25.50;22.75;;;;;16.94;65.92;101508.91;4931092;28;45802;-69
2021/06/23 05:22:03;;;;;;;;;24.75;24.75;;;;;16.89;65.71;101498.38;4936933;28;45555;-69
2021/06/23 05:24:30;;;;;;;;;24.00;21.50;;;;;16.97;65.60;101516.88;4956653;28;46530;-69
2021/06/23 05:26:55;;;;;;;;;24.25;21.50;;;;;16.98;65.81;101518.63;4956570;28;45643;-69
2021/06/23 05:29:21;;;;;;;;;27.00;24.00;;;;;16.97;65.50;101519.56;4941121;28;65327;-69
2021/06/23 05:31:46;;;;;;;;;25.00;23.00;;;;;16.82;65.90;101508.53;4940592;28;67944;-69
2021/06/23 05:34:12;;;;;;;;;27.25;25.00;;;;;16.89;65.49;101522.66;4941004;28;69831;-69
2021/06/23 05:36:37;;;;;;;;;30.75;28.00;;;;;16.80;65.75;101512.25;4941630;28;45476;-69
2021/06/23 05:39:03;;;;;;;;;21.00;21.00;;;;;16.90;65.78;101524.38;4940965;28;59598;-69
2021/06/23 05:41:28;;;;;;;;;25.00;23.75;;;;;16.92;66.04;101532.41;4941570;28;45671;-69
2021/06/23 05:43:54;;;;;;;;;28.25;26.25;;;;;16.91;65.70;101534.22;4940949;28;62682;-69
2021/06/23 05:46:20;;;;;;;;;26.25;24.00;;;;;16.96;66.00;101536.72;4939542;28;45555;-70
2021/06/23 05:48:45;;;;;;;;;28.50;28.00;;;;;16.93;65.81;101531.47;4940161;28;45323;-72
2021/06/23 05:51:10;;;;;;;;;26.25;26.00;;;;;16.88;65.55;101528.97;4941537;28;45319;-70
2021/06/23 05:53:36;;;;;;;;;30.75;27.25;;;;;16.84;65.82;101522.84;4940210;28;48298;-70
2021/06/23 05:56:01;;;;;;;;;31.50;27.75;;;;;16.87;65.81;101526.34;4939615;28;45199;-70
2021/06/23 05:58:27;;;;;;;;;26.50;26.00;;;;;16.91;66.18;101528.84;4956433;28;45639;-70
2021/06/23 06:00:52;;;;;;;;;26.00;26.00;;;;;16.91;65.75;101527.97;4956199;28;45518;-70
2021/06/23 06:03:17;;;;;;;;;23.50;23.50;;;;;16.88;65.87;101525.41;4954178;28;59205;-70
2021/06/23 06:05:43;;;;;;;;;29.00;28.00;;;;;16.95;66.01;101537.66;4940197;28;59140;-70
2021/06/23 06:08:08;;;;;;;;;24.75;23.75;;;;;16.92;65.80;101532.41;4939183;28;45362;-69
2021/06/23 06:10:34;;;;;;;;;31.25;27.50;;;;;16.94;65.93;101542.19;4954851;28;45431;-69
2021/06/23 06:13:01;;;;;;;;;27.75;26.25;;;;;16.94;65.75;101552.06;4944076;28;45380;-70
2021/06/23 06:15:26;;;;;;;;;26.75;26.75;;;;;16.90;66.26;101547.78;4939932;28;45595;-70
2021/06/23 06:17:52;;;;;;;;;30.00;30.00;;;;;16.91;66.19;101546.84;4952116;28;45625;-70
2021/06/23 06:20:17;;;;;;;;;27.00;25.75;;;;;16.90;65.72;101556.72;4936469;28;45353;-70
2021/06/23 06:22:43;;;;;;;;;27.50;25.00;;;;;16.90;66.04;101550.47;4927613;28;59170;-70
2021/06/23 06:25:09;;;;;;;;;25.50;24.25;;;;;16.88;66.40;101545.16;4930813;28;45258;-70
2021/06/23 06:27:34;;;;;;;;;23.50;23.50;;;;;16.95;65.89;101559.22;4950281;28;45308;-70
2021/06/23 06:29:59;;;;;;;;;28.50;28.50;;;;;16.95;65.68;101561.91;4942132;28;45247;-70
2021/06/23 06:32:25;;;;;;;;;31.25;28.25;;;;;16.97;66.21;101560.91;4944287;28;45457;-70
2021/06/23 06:34:50;;;;;;;;;28.25;26.00;;;;;16.95;65.98;101559.22;4944332;28;45232;-70
2021/06/23 06:37:16;;;;;;;;;25.25;22.25;;;;;17.04;65.97;101561.50;4943909;28;45223;-70
2021/06/23 06:39:41;;;;;;;;;23.00;22.50;;;;;17.00;66.14;101558.06;4942842;28;45845;-71
2021/06/23 06:42:07;;;;;;;;;22.00;22.00;;;;;16.91;65.46;101545.00;4943434;28;52717;-70
2021/06/23 06:44:32;;;;;;;;;28.50;27.50;;;;;17.10;65.56;101573.81;4959187;28;45356;-69
2021/06/23 06:47:00;;;;;;;;;27.00;27.00;;;;;17.09;65.26;101574.75;4943955;28;45263;-69
2021/06/23 06:49:28;;;;;;;;;26.00;24.00;;;;;16.98;65.27;101561.78;4943364;28;67799;-69
2021/06/23 06:51:58;;;;;;;;;27.75;25.75;;;;;16.94;65.51;101555.66;4930907;28;47002;-70
2021/06/23 06:54:26;;;;;;;;;25.25;23.75;;;;;17.09;65.73;101577.47;4917701;28;45502;-71
2021/06/23 06:56:52;;;;;;;;;26.75;22.00;;;;;17.11;65.22;101573.75;4943909;28;45571;-70
2021/06/23 06:59:18;;;;;;;;;22.00;20.25;;;;;17.12;64.95;101578.19;4951139;28;45455;-71
2021/06/23 07:01:47;;;;;;;;;24.25;23.00;;;;;17.10;65.00;101579.22;4937320;28;46379;-71
2021/06/23 07:04:14;;;;;;;;;23.75;23.25;;;;;17.07;65.52;101579.34;4943832;28;45512;-71
2021/06/23 07:06:40;;;;;;;;;29.50;28.75;;;;;17.06;65.39;101577.59;4943399;28;45464;-71
2021/06/23 07:09:05;;;;;;;;;31.75;30.25;;;;;17.00;65.53;101581.47;4943248;28;45506;-71
2021/06/23 07:11:31;;;;;;;;;30.00;26.50;;;;;17.04;66.14;101585.78;4943380;28;46193;-70
2021/06/23 07:13:56;;;;;;;;;26.00;26.00;;;;;17.06;65.99;101585.69;4951003;28;45575;-71
2021/06/23 07:16:22;;;;;;;;;31.25;27.75;;;;;17.06;66.04;101589.28;4947048;28;45540;-75
2021/06/23 07:18:48;;;;;;;;;34.50;30.25;;;;;17.06;65.62;101594.69;4940550;28;45554;-70
2021/06/23 07:21:18;;;;;;;;;32.00;28.75;;;;;17.01;65.83;101594.00;4940415;28;46236;-70
2021/06/23 07:23:46;;;;;;;;;31.25;29.25;;;;;16.97;66.19;101589.69;4942350;28;45801;-70
2021/06/23 07:26:12;;;;;;;;;31.25;28.75;;;;;16.97;65.72;101592.38;4937378;28;45400;-73
2021/06/23 07:28:47;;;;;;;;;25.50;22.75;;;;;16.97;66.01;101585.19;4931645;28;45439;-72
2021/06/23 07:31:15;;;;;;;;;27.00;26.50;;;;;17.02;65.51;101598.44;4941423;28;46037;-72
2021/06/23 07:33:50;;;;;;;;;25.00;25.00;;;;;17.02;65.44;101588.56;4931505;28;45679;-72
2021/06/23 07:36:34;;;;;;;;;31.50;29.50;;;;;17.10;65.49;101600.81;4940719;28;45633;-72
2021/06/23 07:38:59;;;;;;;;;30.75;26.00;;;;;17.13;65.43;101600.66;4942409;28;45687;-74
2021/06/23 07:41:25;;;;;;;;;32.00;27.00;;;;;17.13;65.80;101601.53;4965586;28;46417;-72
2021/06/23 07:43:51;;;;;;;;;25.25;24.75;;;;;17.16;65.10;101608.63;4942427;28;45329;-73
2021/06/23 07:46:17;;;;;;;;;22.50;22.00;;;;;17.18;65.01;101606.72;4925150;28;45357;-73
2021/06/23 07:48:42;;;;;;;;;25.00;25.00;;;;;17.13;65.20;101615.00;4956190;28;45583;-73
2021/06/23 07:51:20;;;;;;;;;26.25;24.00;;;;;17.09;64.98;101610.72;4966301;28;46109;-73
2021/06/23 07:56:22;;;;;;;;;27.75;25.25;;;;;17.04;65.71;101608.22;4957192;28;45504;-74
2021/06/23 08:09:52;;;;;;;;;26.00;24.25;;;;;17.16;65.41;101612.19;4936194;28;45743;-75
2021/06/23 08:12:22;;;;;;;;;27.75;25.00;;;;;17.07;64.96;101609.91;4957496;28;46343;-74
2021/06/23 08:14:48;;;;;;;;;27.50;24.25;;;;;17.12;65.58;101612.38;4949208;28;45373;-80
2021/06/23 08:17:13;;;;;;;;;24.25;23.25;;;;;17.06;65.19;101597.38;4936755;28;60705;-74
2021/06/23 08:19:38;;;;;;;;;25.50;24.75;;;;;17.20;65.30;101611.09;4933382;28;67555;-74
2021/06/23 08:22:04;;;;;;;;;23.50;21.00;;;;;17.10;65.53;101592.72;4940928;28;46416;-74
2021/06/23 08:24:30;;;;;;;;;22.50;21.50;;;;;17.21;65.48;101609.28;4941838;28;45461;-74
2021/06/23 08:26:55;;;;;;;;;31.25;26.00;;;;;17.23;65.70;101616.34;4941847;28;45358;-73
2021/06/23 08:29:20;;;;;;;;;29.75;29.75;;;;;17.26;65.09;101606.34;4941076;28;66414;-74
2021/06/23 08:31:46;;;;;;;;;27.75;25.00;;;;;17.30;65.46;101613.38;4955738;28;71790;-74
2021/06/23 08:34:11;;;;;;;;;28.50;27.75;;;;;17.26;65.49;101593.75;4941185;28;64631;-74
2021/06/23 08:36:36;;;;;;;;;26.00;25.75;;;;;17.34;64.89;101607.75;4941554;28;45627;-74
2021/06/23 08:39:02;;;;;;;;;24.50;24.00;;;;;17.31;65.14;101597.09;4940572;28;66382;-74
2021/06/23 08:41:29;;;;;;;;;27.00;26.25;;;;;17.28;64.26;101609.88;4944994;28;46734;-74
2021/06/23 08:43:57;;;;;;;;;29.00;26.75;;;;;17.19;64.60;101601.25;4941814;28;45603;-73
2021/06/23 08:46:23;;;;;;;;;27.75;26.50;;;;;17.20;64.82;101603.00;4943525;28;45453;-74
2021/06/23 08:48:49;;;;;;;;;24.00;23.25;;;;;17.12;65.01;101588.97;4943957;28;45354;-73
2021/06/23 08:51:14;;;;;;;;;28.25;27.00;;;;;17.17;64.99;101607.66;4955260;28;61815;-73
2021/06/23 08:53:40;;;;;;;;;26.50;24.75;;;;;17.20;65.25;101613.78;4956036;28;45194;-74
2021/06/23 08:56:07;;;;;;;;;25.75;24.75;;;;;17.16;65.00;101598.69;4940230;28;45429;-74
2021/06/23 08:58:32;;;;;;;;;30.00;26.75;;;;;17.23;65.16;101608.25;4955747;28;45384;-74
2021/06/23 09:00:58;;;;;;;;;24.25;23.75;;;;;17.30;64.83;101608.84;4941717;28;46157;-74
2021/06/23 09:03:23;;;;;;;;;30.50;29.50;;;;;17.31;64.52;101607.03;4941492;28;45462;-72
2021/06/23 09:05:56;;;;;;;;;26.50;26.00;;;;;17.26;64.39;101609.03;4940621;28;46134;-69
2021/06/23 09:08:31;;;;;;;;;27.00;25.00;;;;;17.24;64.86;101617.25;4936912;28;45552;-75
2021/06/23 09:10:57;;;;;;;;;21.50;20.75;;;;;17.26;64.76;101620.72;4939239;28;46873;-73
2021/06/23 09:13:23;;;;;;;;;29.50;24.25;;;;;17.28;64.78;101618.84;4941076;28;45764;-77
2021/06/23 09:15:51;;;;;;;;;25.25;24.25;;;;;17.27;64.59;101617.06;4940664;28;45313;-77
2021/06/23 09:18:26;;;;;;;;;29.75;26.75;;;;;17.30;64.83;101616.94;4940273;28;45484;-76
2021/06/23 09:20:58;;;;;;;;;24.75;21.00;;;;;17.16;64.38;101590.59;4940980;28;45365;-77
2021/06/23 09:23:36;;;;;;;;;31.25;29.00;;;;;17.28;64.28;101609.88;4955557;28;45475;-76
2021/06/23 09:26:18;;;;;;;;;25.50;22.00;;;;;17.03;64.55;101563.31;4955656;28;45659;-77
2021/06/23 09:28:44;;;;;;;;;25.50;25.00;;;;;17.39;64.20;101618.31;4955560;28;45718;-76
2021/06/23 09:31:10;;;;;;;;;22.75;22.75;;;;;17.41;64.49;101614.59;4955317;28;47389;-73
2021/06/23 09:33:35;;;;;;;;;31.75;27.75;;;;;17.43;63.77;101617.25;4955528;28;45417;-74
2021/06/23 09:36:12;;;;;;;;;29.25;27.50;;;;;17.45;64.01;101620.72;4939801;28;45507;-74
2021/06/23 09:38:50;;;;;;;;;29.50;27.50;;;;;17.46;64.12;101622.50;4938398;28;45484;-75
2021/06/23 09:41:24;;;;;;;;;23.25;22.25;;;;;17.47;63.73;101621.53;4939659;28;46348;-74
2021/06/23 09:43:51;;;;;;;;;27.75;24.25;;;;;17.49;63.80;101619.66;4939568;28;45430;-75
2021/06/23 09:46:19;;;;;;;;;22.75;20.75;;;;;17.48;63.71;101622.44;4940550;28;45406;-73
2021/06/23 09:48:46;;;;;;;;;27.25;27.25;;;;;17.44;64.51;101612.72;4939964;28;45670;-73
2021/06/23 09:51:15;;;;;;;;;27.75;27.75;;;;;17.48;64.08;101617.91;4955011;28;45540;-75
2021/06/23 09:53:40;;;;;;;;;27.50;25.25;;;;;17.40;64.21;101609.28;4939911;28;45479;-75
2021/06/23 09:56:32;;;;;;;;;24.25;22.50;;;;;17.50;64.21;101617.81;4939357;28;45373;-74
2021/06/23 09:58:58;;;;;;;;;25.50;25.00;;;;;17.49;63.75;101616.06;4944786;28;45445;-74
2021/06/23 10:01:25;;;;;;;;;22.50;22.00;;;;;17.53;64.08;101617.69;4955938;28;46096;-73
2021/06/23 10:04:08;;;;;;;;;28.50;26.50;;;;;17.51;64.05;101608.78;4955971;28;45373;-73
2021/06/23 10:06:45;;;;;;;;;26.50;26.00;;;;;17.48;64.31;101623.28;4954641;28;45368;-73
2021/06/23 10:09:24;;;;;;;;;27.00;25.00;;;;;17.46;64.34;101624.28;4932359;28;45584;-71
2021/06/23 10:11:51;;;;;;;;;26.75;24.50;;;;;17.48;64.69;101617.91;4939241;28;45569;-70
2021/06/23 10:14:17;;;;;;;;;30.25;28.75;;;;;17.49;63.72;101622.34;4940332;28;45535;-71
2021/06/23 10:16:42;;;;;;;;;26.75;26.75;;;;;17.44;64.07;101613.59;4940388;28;45459;-71
2021/06/23 10:19:08;;;;;;;;;28.25;27.25;;;;;17.53;64.54;101628.47;4939815;28;45350;-71
2021/06/23 10:21:34;;;;;;;;;30.75;26.00;;;;;17.54;63.96;101632.91;4939949;28;45777;-72
2021/06/23 10:24:00;;;;;;;;;25.25;25.25;;;;;17.49;64.33;101629.56;4939695;28;45303;-74
2021/06/23 10:26:29;;;;;;;;;29.75;26.25;;;;;17.47;63.86;101637.72;4939055;28;45425;-74
2021/06/23 10:28:55;;;;;;;;;26.50;23.75;;;;;17.49;63.81;101629.56;4949514;28;45404;-75
2021/06/23 10:31:25;;;;;;;;;27.00;26.00;;;;;17.48;63.94;101635.91;4954386;28;45551;-75
2021/06/23 10:33:50;;;;;;;;;26.25;26.00;;;;;17.47;64.05;101632.31;4938306;28;45691;-75
2021/06/23 10:36:15;;;;;;;;;34.75;31.00;;;;;17.37;64.53;101609.41;4953270;28;45465;-74
2021/06/23 10:38:45;;;;;;;;;28.25;27.50;;;;;17.49;64.30;101634.94;4950266;28;65245;-75
2021/06/23 10:41:11;;;;;;;;;27.25;25.25;;;;;17.49;63.68;101633.16;4894322;28;47284;-74
2021/06/23 10:43:36;;;;;;;;;28.25;26.50;;;;;17.49;64.05;101627.75;4920753;28;45511;-75
2021/06/23 10:46:02;;;;;;;;;29.25;27.25;;;;;17.58;64.44;101635.41;4937048;28;45745;-75
2021/06/23 10:48:27;;;;;;;;;30.00;29.50;;;;;17.50;63.75;101625.91;4937631;28;53633;-74
2021/06/23 10:50:53;;;;;;;;;27.50;27.50;;;;;17.52;64.14;101632.13;4953834;28;45451;-74
2021/06/23 10:53:31;;;;;;;;;24.75;23.25;;;;;17.52;63.88;101641.06;4938262;28;45397;-74
2021/06/23 10:55:57;;;;;;;;;28.00;26.75;;;;;17.55;64.33;101642.78;4938971;28;45286;-74
2021/06/23 10:58:30;;;;;;;;;27.50;27.25;;;;;17.55;64.41;101638.25;4938690;28;45625;-73
2021/06/23 11:01:11;;;;;;;;;29.00;26.25;;;;;17.58;64.02;101648.03;4938745;28;47096;-74
2021/06/23 11:04:02;;;;;;;;;28.25;27.75;;;;;17.62;64.14;101655.03;4939750;28;45370;-74
2021/06/23 11:06:41;;;;;;;;;26.75;26.75;;;;;17.60;64.08;101648.81;4939870;28;45310;-74
2021/06/23 11:09:26;;;;;;;;;26.25;24.50;;;;;17.65;64.14;101646.78;4928267;28;45489;-74
2021/06/23 11:11:52;;;;;;;;;28.25;27.75;;;;;17.68;64.16;101651.19;4937672;28;46179;-74
2021/06/23 11:14:18;;;;;;;;;33.25;28.50;;;;;17.67;63.81;101654.81;4936909;28;45536;-74
2021/06/23 11:16:43;;;;;;;;;24.50;23.50;;;;;17.65;64.01;101657.59;4937130;28;45727;-71
2021/06/23 11:19:09;;;;;;;;;25.00;25.00;;;;;17.67;64.25;101662.91;4939611;28;45517;-73
2021/06/23 11:21:35;;;;;;;;;25.75;25.50;;;;;17.71;64.35;101661.84;4939499;28;46122;-74